createdAt,value
2023-05-08T00:01:25.431Z,102175.13
2023-05-08T00:03:52.877Z,102180.63
2023-05-08T00:06:19.639Z,102180.53
2023-05-08T00:08:47.827Z,102185.91
2023-05-08T00:11:14.403Z,102177.94
2023-05-08T00:13:41.551Z,102172.53
2023-05-08T00:16:11.678Z,102167.94
2023-05-08T00:18:38.841Z,102170.78
2023-05-08T00:21:06.283Z,102166.31
2023-05-08T00:23:34.263Z,102166.31
2023-05-08T00:26:00.895Z,102169.03
2023-05-08T00:28:27.647Z,102164.56
2023-05-08T00:30:54.306Z,102162.66
2023-05-08T00:33:21.014Z,102163.59
2023-05-08T00:35:47.637Z,102164.53
2023-05-08T00:38:14.180Z,102164.53
2023-05-08T00:40:41.113Z,102163.56
2023-05-08T00:43:07.682Z,102160.03
2023-05-08T00:45:38.140Z,102160.00
2023-05-08T00:48:04.990Z,102159.13
2023-05-08T00:50:33.680Z,102161.84
2023-05-08T00:53:01.338Z,102162.75
2023-05-08T00:55:28.031Z,102159.16
2023-05-08T00:57:54.613Z,102157.34
2023-05-08T01:00:22.100Z,102150.19
2023-05-08T01:02:49.063Z,102152.03
2023-05-08T01:05:15.689Z,102146.72
2023-05-08T01:07:42.543Z,102144.88
2023-05-08T01:10:09.520Z,102143.94
2023-05-08T01:12:52.276Z,102148.38
2023-05-08T01:15:30.590Z,102132.28
2023-05-08T01:18:17.587Z,102139.38
2023-05-08T01:20:53.858Z,102144.84
2023-05-08T01:23:51.310Z,102150.25
2023-05-08T01:26:26.846Z,102154.72
2023-05-08T01:29:23.604Z,102152.09
2023-05-08T01:32:10.032Z,102148.56
2023-05-08T01:34:43.158Z,102147.56
2023-05-08T01:37:14.831Z,102151.97
2023-05-08T01:40:05.084Z,102150.44
2023-05-08T01:42:40.243Z,102143.13
2023-05-08T01:45:23.540Z,102144.09
2023-05-08T01:48:01.966Z,102150.31
2023-05-08T01:50:35.903Z,102156.56
2023-05-08T01:53:08.035Z,102162.09
2023-05-08T01:55:38.087Z,102157.47
2023-05-08T01:58:08.532Z,102162.13
2023-05-08T02:00:35.169Z,102158.41
2023-05-08T02:03:02.650Z,102171.03
2023-05-08T02:05:29.622Z,102169.25
2023-05-08T02:07:56.252Z,102180.06
2023-05-08T02:10:24.476Z,102178.28
2023-05-08T02:12:52.257Z,102177.34
2023-05-08T02:15:19.157Z,102181.06
2023-05-08T02:17:46.958Z,102184.66
2023-05-08T02:20:16.525Z,102189.97
2023-05-08T02:22:49.780Z,102190.03
2023-05-08T02:25:17.028Z,102188.34
2023-05-08T02:27:46.915Z,102192.88
2023-05-08T02:30:14.897Z,102191.91
2023-05-08T02:32:43.940Z,102192.81
2023-05-08T02:35:15.307Z,102188.34
2023-05-08T02:37:47.293Z,102181.22
2023-05-08T02:40:14.801Z,102185.63
2023-05-08T02:42:41.603Z,102184.75
2023-05-08T02:45:09.132Z,102190.19
2023-05-08T02:47:53.225Z,102186.59
2023-05-08T02:50:24.557Z,102183.03
2023-05-08T02:52:53.326Z,102170.41
2023-05-08T02:55:30.765Z,102176.69
2023-05-08T02:58:08.438Z,102177.66
2023-05-08T03:00:43.762Z,102176.69
2023-05-08T03:03:28.840Z,102181.22
2023-05-08T03:05:58.034Z,102183.09
2023-05-08T03:08:30.683Z,102187.56
2023-05-08T03:10:59.578Z,102182.13
2023-05-08T03:13:28.933Z,102170.50
2023-05-08T03:15:58.968Z,102173.16
2023-05-08T03:18:51.789Z,102172.19
2023-05-08T03:21:19.807Z,102172.31
2023-05-08T03:23:51.817Z,102168.75
2023-05-08T03:26:22.329Z,102167.00
2023-05-08T03:28:49.724Z,102167.97
2023-05-08T03:31:23.344Z,102172.31
2023-05-08T03:33:53.375Z,102170.50
2023-05-08T03:36:20.362Z,102168.75
2023-05-08T03:38:47.272Z,102169.72
2023-05-08T03:41:13.907Z,102168.69
2023-05-08T03:43:43.273Z,102171.53
2023-05-08T03:46:10.384Z,102169.69
2023-05-08T03:48:37.380Z,102161.66
2023-05-08T03:51:04.681Z,102174.13
2023-05-08T03:53:32.196Z,102167.00
2023-05-08T03:55:59.521Z,102159.97
2023-05-08T03:58:48.772Z,102168.81
2023-05-08T04:01:20.308Z,102167.03
2023-05-08T04:03:55.597Z,102167.94
2023-05-08T04:06:22.232Z,102164.38
2023-05-08T04:08:55.622Z,102166.16
2023-05-08T04:11:32.002Z,102161.56
2023-05-08T04:14:03.680Z,102157.19
2023-05-08T04:16:35.225Z,102156.22
2023-05-08T04:19:03.297Z,102150.84
2023-05-08T04:21:36.654Z,102150.88
2023-05-08T04:24:04.269Z,102161.56
2023-05-08T04:26:31.043Z,102148.22
2023-05-08T04:28:58.046Z,102152.69
2023-05-08T04:31:24.875Z,102159.78
2023-05-08T04:33:51.635Z,102153.59
2023-05-08T04:36:18.191Z,102152.69
2023-05-08T04:38:44.824Z,102149.94
2023-05-08T04:41:11.529Z,102155.38
2023-05-08T04:43:38.527Z,102154.53
2023-05-08T04:46:06.223Z,102158.19
2023-05-08T04:48:33.954Z,102164.44
2023-05-08T04:51:00.936Z,102165.28
2023-05-08T04:53:27.508Z,102160.91
2023-05-08T04:55:54.913Z,102165.28
2023-05-08T04:58:21.511Z,102169.81
2023-05-08T05:00:48.811Z,102167.13
2023-05-08T05:03:15.525Z,102171.59
2023-05-08T05:05:42.209Z,102168.91
2023-05-08T05:08:08.794Z,102171.63
2023-05-08T05:10:35.434Z,102172.53
2023-05-08T05:13:02.033Z,102172.53
2023-05-08T05:15:28.611Z,102171.63
2023-05-08T05:17:55.405Z,102176.97
2023-05-08T05:20:22.779Z,102171.56
2023-05-08T05:22:50.928Z,102186.91
2023-05-08T05:25:17.563Z,102177.94
2023-05-08T05:27:44.152Z,102180.59
2023-05-08T05:30:11.194Z,102184.16
2023-05-08T05:32:37.943Z,102190.44
2023-05-08T05:35:04.754Z,102192.19
2023-05-08T05:37:31.351Z,102199.44
2023-05-08T05:39:57.920Z,102199.34
2023-05-08T05:42:24.615Z,102206.53
2023-05-08T05:44:51.205Z,102204.81
2023-05-08T05:47:17.795Z,102192.31
2023-05-08T05:49:48.063Z,102201.25
2023-05-08T05:52:14.676Z,102199.47
2023-05-08T05:54:43.900Z,102203.06
2023-05-08T05:57:11.261Z,102199.47
2023-05-08T05:59:38.442Z,102210.22
2023-05-08T06:02:05.055Z,102210.22
2023-05-08T06:04:31.864Z,102209.31
2023-05-08T06:06:58.485Z,102211.97
2023-05-08T06:09:25.107Z,102204.84
2023-05-08T06:11:51.737Z,102204.84
2023-05-08T06:14:18.293Z,102205.75
2023-05-08T06:16:45.136Z,102195.00
2023-05-08T06:19:12.121Z,102193.19
2023-05-08T06:21:43.642Z,102194.09
2023-05-08T06:24:12.180Z,102186.91
2023-05-08T06:26:38.791Z,102194.97
2023-05-08T06:29:05.449Z,102195.88
2023-05-08T06:31:32.081Z,102189.63
2023-05-08T06:34:00.933Z,102194.97
2023-05-08T06:36:27.473Z,102192.28
2023-05-08T06:38:54.091Z,102196.75
2023-05-08T06:41:21.657Z,102195.88
2023-05-08T06:43:48.291Z,102190.47
2023-05-08T06:46:14.922Z,102195.84
2023-05-08T06:48:41.569Z,102179.75
2023-05-08T06:51:10.422Z,102187.81
2023-05-08T06:53:36.973Z,102185.13
2023-05-08T06:56:03.569Z,102188.72
2023-05-08T06:58:32.155Z,102190.50
2023-05-08T07:01:04.397Z,102190.47
2023-05-08T07:03:32.102Z,102187.69
2023-05-08T07:05:58.680Z,102184.06
2023-05-08T07:08:26.041Z,102187.72
2023-05-08T07:10:53.212Z,102180.53
2023-05-08T07:13:22.060Z,102179.72
2023-05-08T07:15:48.718Z,102183.28
2023-05-08T07:18:15.392Z,102183.31
2023-05-08T07:20:41.951Z,102183.34
2023-05-08T07:23:08.680Z,102183.31
2023-05-08T07:25:35.528Z,102186.03
2023-05-08T07:28:03.716Z,102191.38
2023-05-08T07:30:30.276Z,102179.75
2023-05-08T07:32:56.865Z,102175.25
2023-05-08T07:35:23.510Z,102172.56
2023-05-08T07:37:50.203Z,102181.53
2023-05-08T07:40:21.408Z,102186.03
2023-05-08T07:42:48.289Z,102185.13
2023-05-08T07:45:15.155Z,102177.94
2023-05-08T07:47:58.444Z,102172.53
2023-05-08T07:50:28.039Z,102174.34
2023-05-08T07:52:54.662Z,102162.66
2023-05-08T07:55:21.581Z,102171.59
2023-05-08T07:57:48.155Z,102175.19
2023-05-08T08:00:15.469Z,102170.75
2023-05-08T08:02:43.322Z,102170.69
2023-05-08T08:05:10.222Z,102174.25
2023-05-08T08:07:36.909Z,102174.25
2023-05-08T08:10:04.704Z,102172.50
2023-05-08T08:12:31.998Z,102177.84
2023-05-08T08:14:58.554Z,102184.09
2023-05-08T08:17:26.944Z,102177.81
2023-05-08T08:19:56.311Z,102172.47
2023-05-08T08:22:23.480Z,102184.13
2023-05-08T08:24:51.052Z,102188.53
2023-05-08T08:27:21.620Z,102185.00
2023-05-08T08:29:48.205Z,102174.19
2023-05-08T08:32:14.755Z,102184.91
2023-05-08T08:34:41.425Z,102182.97
2023-05-08T08:37:08.074Z,102178.56
2023-05-08T08:39:34.696Z,102179.47
2023-05-08T08:42:04.263Z,102182.16
2023-05-08T08:44:30.852Z,102179.47
2023-05-08T08:46:59.303Z,102170.50
2023-05-08T08:49:31.120Z,102161.47
2023-05-08T08:52:12.063Z,102168.66
2023-05-08T08:54:39.142Z,102175.81
2023-05-08T08:57:09.661Z,102170.47
2023-05-08T08:59:45.498Z,102163.31
2023-05-08T09:02:17.279Z,102161.47
2023-05-08T09:04:47.414Z,102161.47
2023-05-08T09:07:14.044Z,102154.25
2023-05-08T09:09:44.647Z,102149.78
2023-05-08T09:12:16.215Z,102149.75
2023-05-08T09:14:42.787Z,102148.75
2023-05-08T09:17:09.970Z,102148.84
2023-05-08T09:19:39.537Z,102147.94
2023-05-08T09:22:08.638Z,102152.44
2023-05-08T09:24:58.569Z,102154.19
2023-05-08T09:27:32.355Z,102147.91
2023-05-08T09:30:09.862Z,102155.09
2023-05-08T09:32:42.181Z,102158.69
2023-05-08T09:35:10.298Z,102153.28
2023-05-08T09:37:43.144Z,102150.59
2023-05-08T09:40:20.083Z,102155.94
2023-05-08T09:42:47.561Z,102145.25
2023-05-08T09:45:31.768Z,102151.44
2023-05-08T09:47:58.947Z,102156.81
2023-05-08T09:50:25.816Z,102160.41
2023-05-08T09:52:52.448Z,102159.44
2023-05-08T09:55:19.543Z,102158.59
2023-05-08T09:57:54.613Z,102159.41
2023-05-08T10:00:22.186Z,102157.63
2023-05-08T10:03:02.607Z,102150.34
2023-05-08T10:05:36.472Z,102157.47
2023-05-08T10:08:23.070Z,102155.56
2023-05-08T10:10:49.833Z,102158.22
2023-05-08T10:13:16.524Z,102151.91
2023-05-08T10:15:46.594Z,102147.31
2023-05-08T10:18:18.504Z,102144.66
2023-05-08T10:20:47.534Z,102146.38
2023-05-08T10:23:22.057Z,102141.88
2023-05-08T10:25:54.731Z,102142.75
2023-05-08T10:28:33.143Z,102136.41
2023-05-08T10:31:09.647Z,102140.88
2023-05-08T10:33:40.674Z,102141.66
2023-05-08T10:36:08.297Z,102138.97
2023-05-08T10:38:35.249Z,102138.88
2023-05-08T10:41:02.304Z,102133.28
2023-05-08T10:43:31.179Z,102137.00
2023-05-08T10:45:58.962Z,102136.06
2023-05-08T10:49:09.959Z,102130.59
2023-05-08T10:52:07.955Z,102129.66
2023-05-08T10:54:48.810Z,102127.75
2023-05-08T10:57:15.552Z,102133.16
2023-05-08T10:59:48.380Z,102131.41
2023-05-08T11:02:17.586Z,102125.97
2023-05-08T11:04:44.283Z,102133.97
2023-05-08T11:07:11.557Z,102136.69
2023-05-08T11:09:40.927Z,102122.38
2023-05-08T11:12:16.760Z,102123.19
2023-05-08T11:14:45.685Z,102116.78
2023-05-08T11:17:12.280Z,102115.88
2023-05-08T11:19:38.935Z,102116.72
2023-05-08T11:22:15.063Z,102114.84
2023-05-08T11:24:53.226Z,102114.81
2023-05-08T11:27:34.868Z,102111.25
2023-05-08T11:30:20.040Z,102116.56
2023-05-08T11:32:57.547Z,102107.53
2023-05-08T11:38:38.048Z,102107.47
2023-05-08T11:41:11.129Z,102112.91
2023-05-08T11:43:56.398Z,102108.34
2023-05-08T11:46:23.135Z,102107.31
2023-05-08T11:49:04.420Z,102107.22
2023-05-08T11:51:32.956Z,102107.28
2023-05-08T11:54:01.099Z,102103.56
2023-05-08T11:56:31.587Z,102108.03
2023-05-08T11:59:08.437Z,102106.13
2023-05-08T12:01:35.535Z,102105.28
2023-05-08T12:04:07.310Z,102098.00
2023-05-08T12:06:35.286Z,102106.13
2023-05-08T12:09:11.365Z,102098.91
2023-05-08T12:11:39.228Z,102091.66
2023-05-08T12:14:05.815Z,102095.31
2023-05-08T12:16:39.993Z,102097.72
2023-05-08T12:19:13.377Z,102093.22
2023-05-08T12:21:47.421Z,102099.44
2023-05-08T12:24:32.142Z,102088.63
2023-05-08T12:27:01.819Z,102079.44
2023-05-08T12:29:28.409Z,102081.06
2023-05-08T12:31:55.064Z,102083.09
2023-05-08T12:34:21.797Z,102071.53
2023-05-08T12:36:48.361Z,102073.16
2023-05-08T12:39:21.498Z,102068.66
2023-05-08T12:41:58.507Z,102072.34
2023-05-08T12:44:28.492Z,102075.78
2023-05-08T12:46:57.156Z,102075.78
2023-05-08T12:49:31.165Z,102067.66
2023-05-08T12:52:09.044Z,102066.56
2023-05-08T12:54:37.372Z,102063.06
2023-05-08T12:57:09.636Z,102054.94
2023-05-08T12:59:37.585Z,102061.16
2023-05-08T13:02:04.197Z,102054.00
2023-05-08T13:04:38.590Z,102053.03
2023-05-08T13:07:11.614Z,102053.03
2023-05-08T13:09:42.832Z,102054.94
2023-05-08T13:12:11.927Z,102048.69
2023-05-08T13:14:38.491Z,102044.97
2023-05-08T13:17:05.081Z,102042.25
2023-05-08T13:19:31.632Z,102040.25
2023-05-08T13:21:58.223Z,102036.81
2023-05-08T13:24:25.857Z,102041.22
2023-05-08T13:26:52.416Z,102035.81
2023-05-08T13:29:18.985Z,102039.50
2023-05-08T13:31:45.708Z,102034.03
2023-05-08T13:34:12.307Z,102028.75
2023-05-08T13:36:43.792Z,102019.72
2023-05-08T13:39:10.516Z,102023.34
2023-05-08T13:41:37.092Z,102022.34
2023-05-08T13:44:03.643Z,102015.13
2023-05-08T13:46:30.423Z,102015.97
2023-05-08T13:48:57.069Z,102016.97
2023-05-08T13:51:23.644Z,102011.50
2023-05-08T13:53:50.256Z,102015.00
2023-05-08T13:56:16.813Z,102016.88
2023-05-08T13:58:44.148Z,102020.47
2023-05-08T14:01:24.827Z,102008.66
2023-05-08T14:03:54.223Z,102011.50
2023-05-08T14:06:21.170Z,102000.63
2023-05-08T14:08:50.390Z,101998.91
2023-05-08T14:11:18.226Z,102003.25
2023-05-08T14:13:44.778Z,102001.41
2023-05-08T14:16:13.058Z,101994.19
2023-05-08T14:18:40.372Z,101991.47
2023-05-08T14:21:09.289Z,101987.81
2023-05-08T14:23:39.407Z,101987.88
2023-05-08T14:26:05.996Z,101992.34
2023-05-08T14:28:32.583Z,101988.63
2023-05-08T14:30:59.246Z,101995.88
2023-05-08T14:33:28.745Z,101990.44
2023-05-08T14:35:55.379Z,101992.25
2023-05-08T14:38:21.951Z,101984.94
2023-05-08T14:40:51.441Z,101981.34
2023-05-08T14:43:20.949Z,101982.22
2023-05-08T14:45:47.622Z,101976.81
2023-05-08T14:48:17.086Z,101984.03
2023-05-08T14:50:43.706Z,101977.69
2023-05-08T14:53:10.452Z,101975.84
2023-05-08T14:55:38.541Z,101975.91
2023-05-08T14:58:08.042Z,101974.94
2023-05-08T15:00:40.803Z,101977.69
2023-05-08T15:03:07.595Z,101967.75
2023-05-08T15:05:34.271Z,101972.22
2023-05-08T15:08:02.656Z,101966.81
2023-05-08T15:10:34.157Z,101968.56
2023-05-08T15:13:00.901Z,101968.56
2023-05-08T15:15:27.547Z,101964.09
2023-05-08T15:17:54.251Z,101967.66
2023-05-08T15:20:21.445Z,101965.88
2023-05-08T15:22:53.712Z,101968.66
2023-05-08T15:25:22.642Z,101961.41
2023-05-08T15:27:52.847Z,101963.16
2023-05-08T15:30:20.281Z,101968.56
2023-05-08T15:32:47.035Z,101964.97
2023-05-08T15:35:14.627Z,101966.00
2023-05-08T15:37:42.108Z,101964.13
2023-05-08T15:40:09.221Z,101974.06
2023-05-08T15:42:38.314Z,101959.69
2023-05-08T15:45:05.191Z,101963.25
2023-05-08T15:47:34.170Z,101967.81
2023-05-08T15:50:05.732Z,101959.78
2023-05-08T15:52:32.308Z,101969.63
2023-05-08T15:54:58.921Z,101961.47
2023-05-08T15:57:28.118Z,101963.25
2023-05-08T15:59:54.690Z,101965.09
2023-05-08T16:02:21.257Z,101974.06
2023-05-08T16:04:49.089Z,101972.34
2023-05-08T16:07:24.780Z,101974.06
2023-05-08T16:09:54.111Z,101964.22
2023-05-08T16:12:20.677Z,101966.81
2023-05-08T16:14:47.252Z,101961.47
2023-05-08T16:17:13.784Z,101963.31
2023-05-08T16:19:44.241Z,101964.19
2023-05-08T16:22:12.422Z,101965.19
2023-05-08T16:24:41.573Z,101965.19
2023-05-08T16:27:08.184Z,101961.63
2023-05-08T16:29:34.798Z,101966.06
2023-05-08T16:32:01.796Z,101961.53
2023-05-08T16:34:32.269Z,101965.19
2023-05-08T16:37:01.415Z,101961.53
2023-05-08T16:39:28.009Z,101956.13
2023-05-08T16:41:54.606Z,101961.53
2023-05-08T16:44:21.194Z,101960.63
2023-05-08T16:46:47.796Z,101959.69
2023-05-08T16:49:14.355Z,101962.34
2023-05-08T16:51:40.933Z,101957.00
2023-05-08T16:54:07.497Z,101956.13
2023-05-08T16:56:34.054Z,101961.53
2023-05-08T16:59:02.257Z,101957.13
2023-05-08T17:01:31.237Z,101956.25
2023-05-08T17:04:00.152Z,101958.03
2023-05-08T17:06:28.461Z,101971.50
2023-05-08T17:08:55.009Z,101982.41
2023-05-08T17:11:21.897Z,101993.28
2023-05-08T17:13:48.601Z,101995.97
2023-05-08T17:16:20.397Z,101995.06
2023-05-08T17:18:47.211Z,101994.09
2023-05-08T17:21:13.754Z,101989.75
2023-05-08T17:23:58.387Z,101984.34
2023-05-08T17:26:25.037Z,101975.34
2023-05-08T17:28:51.596Z,101989.81
2023-05-08T17:31:20.782Z,101983.50
2023-05-08T17:33:47.354Z,101987.13
2023-05-08T17:36:13.971Z,101990.78
2023-05-08T17:38:48.509Z,101982.69
2023-05-08T17:41:15.097Z,101983.63
2023-05-08T17:43:41.683Z,101981.84
2023-05-08T17:46:08.349Z,101982.78
2023-05-08T17:48:34.951Z,101980.91
2023-05-08T17:51:03.462Z,101984.56
2023-05-08T17:53:33.119Z,101981.84
2023-05-08T17:55:59.719Z,101978.28
2023-05-08T17:58:26.352Z,101978.25
2023-05-08T18:00:53.963Z,101972.88
2023-05-08T18:03:23.577Z,101971.09
2023-05-08T18:05:53.206Z,101976.59
2023-05-08T18:08:19.749Z,101969.41
2023-05-08T18:10:46.359Z,101959.38
2023-05-08T18:13:13.058Z,101955.78
2023-05-08T18:15:40.324Z,101962.94
2023-05-08T18:18:06.967Z,101961.06
2023-05-08T18:20:33.577Z,101951.22
2023-05-08T18:23:00.151Z,101950.28
2023-05-08T18:25:26.717Z,101942.16
2023-05-08T18:27:53.376Z,101951.13
2023-05-08T18:30:19.923Z,101952.91
2023-05-08T18:32:46.555Z,101960.97
2023-05-08T18:35:13.178Z,101960.09
2023-05-08T18:37:39.818Z,101956.53
2023-05-08T18:40:06.991Z,101960.16
2023-05-08T18:42:39.047Z,101962.91
2023-05-08T18:45:15.110Z,101960.19
2023-05-08T18:47:44.735Z,101954.84
2023-05-08T18:50:11.420Z,101955.66
2023-05-08T18:52:38.132Z,101952.97
2023-05-08T18:55:04.980Z,101946.69
2023-05-08T18:57:31.543Z,101947.56
2023-05-08T18:59:58.133Z,101945.81
2023-05-08T19:02:27.802Z,101958.47
2023-05-08T19:04:54.665Z,101957.16
2023-05-08T19:07:21.225Z,101951.44
2023-05-08T19:09:47.830Z,101960.38
2023-05-08T19:12:18.190Z,101950.44
2023-05-08T19:14:44.777Z,101957.59
2023-05-08T19:17:11.367Z,101960.28
2023-05-08T19:19:37.941Z,101950.41
2023-05-08T19:22:10.234Z,101953.09
2023-05-08T19:24:36.778Z,101950.47
2023-05-08T19:27:03.335Z,101954.97
2023-05-08T19:29:29.966Z,101953.19
2023-05-08T19:31:56.792Z,101951.41
2023-05-08T19:34:23.940Z,101957.72
2023-05-08T19:36:50.866Z,101961.38
2023-05-08T19:39:17.929Z,101959.56
2023-05-08T19:41:44.536Z,101974.00
2023-05-08T19:44:14.145Z,101978.53
2023-05-08T19:46:40.780Z,101982.16
2023-05-08T19:49:07.469Z,101987.78
2023-05-08T19:51:34.530Z,101992.22
2023-05-08T19:54:01.121Z,101982.31
2023-05-08T19:56:30.721Z,101981.41
2023-05-08T19:58:57.272Z,101976.91
2023-05-08T20:01:23.876Z,101969.75
2023-05-08T20:03:50.521Z,101967.91
2023-05-08T20:06:17.179Z,101971.63
2023-05-08T20:08:50.150Z,101970.75
2023-05-08T20:11:26.003Z,101966.31
2023-05-08T20:13:55.797Z,101958.22
2023-05-08T20:16:22.407Z,101951.94
2023-05-08T20:18:49.059Z,101964.56
2023-05-08T20:21:15.640Z,101956.53
2023-05-08T20:23:44.169Z,101954.72
2023-05-08T20:26:13.606Z,101956.53
2023-05-08T20:28:40.571Z,101953.88
2023-05-08T20:31:07.227Z,101959.28
2023-05-08T20:33:33.862Z,101962.91
2023-05-08T20:36:00.518Z,101946.69
2023-05-08T20:38:27.162Z,101946.81
2023-05-08T20:40:56.974Z,101928.84
2023-05-08T20:43:26.009Z,101934.25
2023-05-08T20:45:52.583Z,101932.56
2023-05-08T20:48:19.215Z,101927.09
2023-05-08T20:50:49.356Z,101931.56
2023-05-08T20:53:21.972Z,101923.50
2023-05-08T20:56:08.803Z,101925.34
2023-05-08T20:58:40.550Z,101927.00
2023-05-08T21:01:12.713Z,101934.25
2023-05-08T21:03:40.448Z,101936.03
2023-05-08T21:06:10.099Z,101933.34
2023-05-08T21:08:42.042Z,101943.44
2023-05-08T21:11:08.621Z,101945.22
2023-05-08T21:13:36.694Z,101945.19
2023-05-08T21:16:04.282Z,101939.72
2023-05-08T21:18:33.864Z,101943.44
2023-05-08T21:21:00.456Z,101931.78
2023-05-08T21:23:36.891Z,101926.38
2023-05-08T21:26:03.569Z,101927.25
2023-05-08T21:28:30.127Z,101925.53
2023-05-08T21:30:56.692Z,101930.00
2023-05-08T21:33:23.281Z,101915.66
2023-05-08T21:35:49.881Z,101912.97
2023-05-08T21:38:16.461Z,101907.59
2023-05-08T21:40:43.006Z,101903.03
2023-05-08T21:43:09.618Z,101900.44
2023-05-08T21:45:36.366Z,101904.94
2023-05-08T21:48:07.857Z,101908.56
2023-05-08T21:50:34.439Z,101905.91
2023-05-08T21:53:01.457Z,101904.13
2023-05-08T21:55:33.756Z,101900.53
2023-05-08T21:58:00.327Z,101889.72
2023-05-08T22:00:26.919Z,101893.47
2023-05-08T22:02:53.554Z,101893.31
2023-05-08T22:05:20.126Z,101891.56
2023-05-08T22:07:47.542Z,101884.31
2023-05-08T22:10:14.211Z,101888.88
2023-05-08T22:12:40.843Z,101896.97
2023-05-08T22:15:17.956Z,101905.16
2023-05-08T22:17:58.262Z,101899.69
2023-05-08T22:20:31.183Z,101904.16
2023-05-08T22:23:00.662Z,101907.03
2023-05-08T22:25:30.793Z,101906.13
2023-05-08T22:27:57.339Z,101873.75
2023-05-08T22:30:23.977Z,101862.94
2023-05-08T22:33:02.670Z,101864.72
2023-05-08T22:35:29.269Z,101863.84
2023-05-08T22:37:57.909Z,101860.22
2023-05-08T22:40:24.575Z,101857.66
2023-05-08T22:42:51.766Z,101860.34
2023-05-08T22:45:23.030Z,101851.34
2023-05-08T22:47:57.091Z,101858.59
2023-05-08T22:50:23.893Z,101861.34
2023-05-08T22:52:50.457Z,101857.72
2023-05-08T22:55:17.163Z,101846.94
2023-05-08T22:57:46.643Z,101841.53
2023-05-08T23:00:16.073Z,101840.59
2023-05-08T23:02:42.665Z,101839.72
2023-05-08T23:05:09.576Z,101843.41
2023-05-08T23:07:36.217Z,101845.13
2023-05-08T23:10:02.814Z,101846.94
2023-05-08T23:12:30.808Z,101854.25
2023-05-08T23:14:57.392Z,101838.84
2023-05-08T23:17:26.564Z,101839.84
2023-05-08T23:19:53.154Z,101848.81
2023-05-08T23:22:19.718Z,101838.03
2023-05-08T23:24:59.783Z,101829.84
2023-05-08T23:27:26.381Z,101843.53
2023-05-08T23:29:53.014Z,101832.81
2023-05-08T23:32:26.668Z,101816.59
2023-05-08T23:34:53.240Z,101816.56
2023-05-08T23:37:19.796Z,101809.44
2023-05-08T23:39:46.401Z,101814.81
2023-05-08T23:42:13.053Z,101805.84
2023-05-08T23:44:39.674Z,101808.56
2023-05-08T23:47:06.279Z,101797.09
2023-05-08T23:49:32.916Z,101794.28
2023-05-08T23:51:59.527Z,101796.03
2023-05-08T23:54:26.097Z,101792.38
2023-05-08T23:56:52.652Z,101778.84
2023-05-08T23:59:19.223Z,101783.56
